sensor_id;sensor_type;location;lat;lon;timestamp;temperature;humidity
66608;DHT22;53462;39.616;8.824;2022-11-27T00:00:37;9.40;99.90
66608;DHT22;53462;39.616;8.824;2022-11-27T00:03:02;9.50;99.90
66608;DHT22;53462;39.616;8.824;2022-11-27T00:05:28;9.60;99.90
66608;DHT22;53462;39.616;8.824;2022-11-27T00:07:54;9.60;99.90
66608;DHT22;53462;39.616;8.824;2022-11-27T00:10:19;9.40;99.90
66608;DHT22;53462;39.616;8.824;2022-11-27T00:12:45;9.50;99.90
66608;DHT22;53462;39.616;8.824;2022-11-27T00:15:11;9.40;99.90
66608;DHT22;53462;39.616;8.824;2022-11-27T00:17:37;9.30;99.90
66608;DHT22;53462;39.616;8.824;2022-11-27T00:20:03;9.30;99.90
66608;DHT22;53462;39.616;8.824;2022-11-27T00:22:29;9.20;99.90
66608;DHT22;53462;39.616;8.824;2022-11-27T00:24:55;9.20;99.90
66608;DHT22;53462;39.616;8.824;2022-11-27T00:27:20;9.10;99.90
66608;DHT22;53462;39.616;8.824;2022-11-27T00:29:46;9.20;99.90
66608;DHT22;53462;39.616;8.824;2022-11-27T00:32:12;9.10;99.90
66608;DHT22;53462;39.616;8.824;2022-11-27T00:34:38;9.10;99.90
66608;DHT22;53462;39.616;8.824;2022-11-27T00:37:03;9.20;99.90
66608;DHT22;53462;39.616;8.824;2022-11-27T00:39:29;9.10;99.90
66608;DHT22;53462;39.616;8.824;2022-11-27T00:41:55;9.10;99.90
66608;DHT22;53462;39.616;8.824;2022-11-27T00:44:21;9.00;99.90
66608;DHT22;53462;39.616;8.824;2022-11-27T00:46:46;8.90;99.90
66608;DHT22;53462;39.616;8.824;2022-11-27T00:49:13;8.80;99.90
66608;DHT22;53462;39.616;8.824;2022-11-27T00:51:39;8.90;99.90
66608;DHT22;53462;39.616;8.824;2022-11-27T00:54:05;8.80;99.90
66608;DHT22;53462;39.616;8.824;2022-11-27T00:56:32;9.00;99.90
66608;DHT22;53462;39.616;8.824;2022-11-27T00:58:58;9.10;99.90
66608;DHT22;53462;39.616;8.824;2022-11-27T01:01:25;9.10;99.90
66608;DHT22;53462;39.616;8.824;2022-11-27T01:03:52;9.00;99.90
66608;DHT22;53462;39.616;8.824;2022-11-27T01:06:19;9.00;99.90
66608;DHT22;53462;39.616;8.824;2022-11-27T01:08:45;8.90;99.90
66608;DHT22;53462;39.616;8.824;2022-11-27T01:11:14;8.90;99.90
66608;DHT22;53462;39.616;8.824;2022-11-27T01:13:41;8.80;99.90
66608;DHT22;53462;39.616;8.824;2022-11-27T01:16:08;8.70;99.90
66608;DHT22;53462;39.616;8.824;2022-11-27T01:18:34;8.70;99.90
66608;DHT22;53462;39.616;8.824;2022-11-27T01:21:00;8.70;99.90
66608;DHT22;53462;39.616;8.824;2022-11-27T01:23:26;8.70;99.90
66608;DHT22;53462;39.616;8.824;2022-11-27T01:25:52;8.70;99.90
66608;DHT22;53462;39.616;8.824;2022-11-27T01:28:19;8.70;99.90
66608;DHT22;53462;39.616;8.824;2022-11-27T01:30:45;8.60;99.90
66608;DHT22;53462;39.616;8.824;2022-11-27T01:33:11;8.50;99.90
66608;DHT22;53462;39.616;8.824;2022-11-27T01:35:37;8.50;99.90
66608;DHT22;53462;39.616;8.824;2022-11-27T01:38:02;8.40;99.90
66608;DHT22;53462;39.616;8.824;2022-11-27T01:40:28;8.30;99.90
66608;DHT22;53462;39.616;8.824;2022-11-27T01:42:54;8.30;99.90
66608;DHT22;53462;39.616;8.824;2022-11-27T01:45:20;8.40;99.90
66608;DHT22;53462;39.616;8.824;2022-11-27T01:47:53;8.60;99.90
66608;DHT22;53462;39.616;8.824;2022-11-27T01:50:21;8.60;99.90
66608;DHT22;53462;39.616;8.824;2022-11-27T01:52:49;8.60;99.90
66608;DHT22;53462;39.616;8.824;2022-11-27T01:55:19;8.70;99.90
66608;DHT22;53462;39.616;8.824;2022-11-27T01:57:47;8.70;99.90
66608;DHT22;53462;39.616;8.824;2022-11-27T02:00:13;8.50;99.90
66608;DHT22;53462;39.616;8.824;2022-11-27T02:02:40;8.60;99.90
66608;DHT22;53462;39.616;8.824;2022-11-27T02:05:06;8.60;99.90
66608;DHT22;53462;39.616;8.824;2022-11-27T02:07:32;8.60;99.90
66608;DHT22;53462;39.616;8.824;2022-11-27T02:09:57;8.60;99.90
66608;DHT22;53462;39.616;8.824;2022-11-27T02:12:27;8.50;99.90
66608;DHT22;53462;39.616;8.824;2022-11-27T02:17:54;8.60;99.90
66608;DHT22;53462;39.616;8.824;2022-11-27T02:33:45;8.50;99.90
66608;DHT22;53462;39.616;8.824;2022-11-27T02:36:18;8.60;99.90
66608;DHT22;53462;39.616;8.824;2022-11-27T02:38:48;8.70;99.90
66608;DHT22;53462;39.616;8.824;2022-11-27T02:41:18;8.60;99.90
66608;DHT22;53462;39.616;8.824;2022-11-27T02:43:45;8.60;99.90
66608;DHT22;53462;39.616;8.824;2022-11-27T02:46:12;8.60;99.90
66608;DHT22;53462;39.616;8.824;2022-11-27T02:48:41;8.50;99.90
66608;DHT22;53462;39.616;8.824;2022-11-27T02:51:09;8.50;99.90
66608;DHT22;53462;39.616;8.824;2022-11-27T02:53:41;8.70;99.90
66608;DHT22;53462;39.616;8.824;2022-11-27T02:56:09;8.60;99.90
66608;DHT22;53462;39.616;8.824;2022-11-27T02:58:37;8.70;99.90
66608;DHT22;53462;39.616;8.824;2022-11-27T03:01:04;8.80;99.90
66608;DHT22;53462;39.616;8.824;2022-11-27T03:03:33;8.90;99.90
66608;DHT22;53462;39.616;8.824;2022-11-27T03:06:01;8.90;99.90
66608;DHT22;53462;39.616;8.824;2022-11-27T03:11:03;9.00;99.90
66608;DHT22;53462;39.616;8.824;2022-11-27T03:13:30;9.00;99.90
66608;DHT22;53462;39.616;8.824;2022-11-27T03:16:04;9.00;99.90
66608;DHT22;53462;39.616;8.824;2022-11-27T03:23:39;8.90;99.90
66608;DHT22;53462;39.616;8.824;2022-11-27T03:26:05;8.90;99.90
66608;DHT22;53462;39.616;8.824;2022-11-27T03:28:30;8.90;99.90
66608;DHT22;53462;39.616;8.824;2022-11-27T03:30:57;8.90;99.90
66608;DHT22;53462;39.616;8.824;2022-11-27T03:33:22;8.90;99.90
66608;DHT22;53462;39.616;8.824;2022-11-27T03:35:48;8.80;99.90
66608;DHT22;53462;39.616;8.824;2022-11-27T03:38:14;8.90;99.90
66608;DHT22;53462;39.616;8.824;2022-11-27T03:40:43;8.90;99.90
66608;DHT22;53462;39.616;8.824;2022-11-27T03:43:13;9.00;99.90
66608;DHT22;53462;39.616;8.824;2022-11-27T03:45:50;9.00;99.90
66608;DHT22;53462;39.616;8.824;2022-11-27T03:50:46;9.20;99.90
66608;DHT22;53462;39.616;8.824;2022-11-27T04:01:04;9.20;99.90
66608;DHT22;53462;39.616;8.824;2022-11-27T04:03:30;9.20;99.90
66608;DHT22;53462;39.616;8.824;2022-11-27T04:05:56;9.10;99.90
66608;DHT22;53462;39.616;8.824;2022-11-27T04:08:22;9.00;99.90
66608;DHT22;53462;39.616;8.824;2022-11-27T04:10:48;9.00;99.90
66608;DHT22;53462;39.616;8.824;2022-11-27T04:13:14;9.00;99.90
66608;DHT22;53462;39.616;8.824;2022-11-27T04:15:40;9.00;99.90
66608;DHT22;53462;39.616;8.824;2022-11-27T04:18:06;9.00;99.90
66608;DHT22;53462;39.616;8.824;2022-11-27T04:20:31;8.90;99.90
66608;DHT22;53462;39.616;8.824;2022-11-27T04:22:57;8.90;99.90
66608;DHT22;53462;39.616;8.824;2022-11-27T04:25:23;8.90;99.90
66608;DHT22;53462;39.616;8.824;2022-11-27T04:27:49;8.90;99.90
66608;DHT22;53462;39.616;8.824;2022-11-27T04:30:15;8.90;99.90
66608;DHT22;53462;39.616;8.824;2022-11-27T04:32:41;9.00;99.90
66608;DHT22;53462;39.616;8.824;2022-11-27T04:35:07;9.00;99.90
66608;DHT22;53462;39.616;8.824;2022-11-27T04:37:32;8.90;99.90
66608;DHT22;53462;39.616;8.824;2022-11-27T04:39:58;8.90;99.90
66608;DHT22;53462;39.616;8.824;2022-11-27T04:42:24;9.00;99.90
66608;DHT22;53462;39.616;8.824;2022-11-27T04:44:50;9.00;99.90
66608;DHT22;53462;39.616;8.824;2022-11-27T04:47:16;9.00;99.90
66608;DHT22;53462;39.616;8.824;2022-11-27T04:49:41;9.00;99.90
66608;DHT22;53462;39.616;8.824;2022-11-27T04:52:07;9.00;99.90
66608;DHT22;53462;39.616;8.824;2022-11-27T04:54:33;9.00;99.90
66608;DHT22;53462;39.616;8.824;2022-11-27T04:56:59;8.90;99.90
66608;DHT22;53462;39.616;8.824;2022-11-27T04:59:24;8.90;99.90
66608;DHT22;53462;39.616;8.824;2022-11-27T05:01:50;8.90;99.90
66608;DHT22;53462;39.616;8.824;2022-11-27T05:04:16;8.90;99.90
66608;DHT22;53462;39.616;8.824;2022-11-27T05:06:42;8.90;99.90
66608;DHT22;53462;39.616;8.824;2022-11-27T05:09:07;8.90;99.90
66608;DHT22;53462;39.616;8.824;2022-11-27T05:11:33;9.00;99.90
66608;DHT22;53462;39.616;8.824;2022-11-27T05:13:59;9.10;99.90
66608;DHT22;53462;39.616;8.824;2022-11-27T05:16:42;9.10;99.90
66608;DHT22;53462;39.616;8.824;2022-11-27T05:19:09;9.10;99.90
66608;DHT22;53462;39.616;8.824;2022-11-27T05:21:35;9.10;99.90
66608;DHT22;53462;39.616;8.824;2022-11-27T05:24:01;9.10;99.90
66608;DHT22;53462;39.616;8.824;2022-11-27T05:26:27;9.10;99.90
66608;DHT22;53462;39.616;8.824;2022-11-27T05:28:52;9.10;99.90
66608;DHT22;53462;39.616;8.824;2022-11-27T05:31:18;9.10;99.90
66608;DHT22;53462;39.616;8.824;2022-11-27T05:33:44;9.10;99.90
66608;DHT22;53462;39.616;8.824;2022-11-27T05:36:10;9.00;99.90
66608;DHT22;53462;39.616;8.824;2022-11-27T05:38:36;8.80;99.90
66608;DHT22;53462;39.616;8.824;2022-11-27T05:41:01;8.70;99.90
66608;DHT22;53462;39.616;8.824;2022-11-27T05:43:27;8.60;99.90
66608;DHT22;53462;39.616;8.824;2022-11-27T05:45:53;8.70;99.90
66608;DHT22;53462;39.616;8.824;2022-11-27T05:48:19;8.70;99.90
66608;DHT22;53462;39.616;8.824;2022-11-27T05:50:45;8.50;99.90
66608;DHT22;53462;39.616;8.824;2022-11-27T05:53:12;8.50;99.90
66608;DHT22;53462;39.616;8.824;2022-11-27T05:55:38;8.50;99.90
66608;DHT22;53462;39.616;8.824;2022-11-27T05:58:03;8.50;99.90
66608;DHT22;53462;39.616;8.824;2022-11-27T06:00:29;8.50;99.90
66608;DHT22;53462;39.616;8.824;2022-11-27T06:02:55;8.40;99.90
66608;DHT22;53462;39.616;8.824;2022-11-27T06:05:21;8.40;99.90
66608;DHT22;53462;39.616;8.824;2022-11-27T06:07:47;8.40;99.90
66608;DHT22;53462;39.616;8.824;2022-11-27T06:10:13;8.40;99.90
66608;DHT22;53462;39.616;8.824;2022-11-27T06:12:38;8.40;99.90
66608;DHT22;53462;39.616;8.824;2022-11-27T06:15:04;8.30;99.90
66608;DHT22;53462;39.616;8.824;2022-11-27T06:17:30;8.30;99.90
66608;DHT22;53462;39.616;8.824;2022-11-27T06:19:56;8.30;99.90
66608;DHT22;53462;39.616;8.824;2022-11-27T06:22:21;8.40;99.90
66608;DHT22;53462;39.616;8.824;2022-11-27T06:24:47;8.50;99.90
66608;DHT22;53462;39.616;8.824;2022-11-27T06:27:13;8.60;99.90
66608;DHT22;53462;39.616;8.824;2022-11-27T06:29:39;8.70;99.90
66608;DHT22;53462;39.616;8.824;2022-11-27T06:32:05;8.80;99.90
66608;DHT22;53462;39.616;8.824;2022-11-27T06:34:31;8.80;99.90
66608;DHT22;53462;39.616;8.824;2022-11-27T06:36:56;8.80;99.90
66608;DHT22;53462;39.616;8.824;2022-11-27T06:39:22;8.80;99.90
66608;DHT22;53462;39.616;8.824;2022-11-27T06:41:48;9.00;99.90
66608;DHT22;53462;39.616;8.824;2022-11-27T06:44:14;9.10;99.90
66608;DHT22;53462;39.616;8.824;2022-11-27T06:46:39;9.10;99.90
66608;DHT22;53462;39.616;8.824;2022-11-27T06:49:05;9.00;99.90
66608;DHT22;53462;39.616;8.824;2022-11-27T06:51:31;9.00;99.90
66608;DHT22;53462;39.616;8.824;2022-11-27T06:54:00;8.70;99.90
66608;DHT22;53462;39.616;8.824;2022-11-27T06:56:27;8.70;99.90
66608;DHT22;53462;39.616;8.824;2022-11-27T06:58:54;8.70;99.90
66608;DHT22;53462;39.616;8.824;2022-11-27T07:01:20;8.90;99.90
66608;DHT22;53462;39.616;8.824;2022-11-27T07:03:46;8.90;99.90
66608;DHT22;53462;39.616;8.824;2022-11-27T07:06:13;8.80;99.90
66608;DHT22;53462;39.616;8.824;2022-11-27T07:08:40;9.00;99.90
66608;DHT22;53462;39.616;8.824;2022-11-27T07:11:06;9.00;99.90
66608;DHT22;53462;39.616;8.824;2022-11-27T07:13:32;9.10;99.90
66608;DHT22;53462;39.616;8.824;2022-11-27T07:15:59;9.10;99.90
66608;DHT22;53462;39.616;8.824;2022-11-27T07:18:26;9.30;99.90
66608;DHT22;53462;39.616;8.824;2022-11-27T07:20:52;9.30;99.90
66608;DHT22;53462;39.616;8.824;2022-11-27T07:23:18;9.40;99.90
66608;DHT22;53462;39.616;8.824;2022-11-27T07:25:44;9.50;99.90
66608;DHT22;53462;39.616;8.824;2022-11-27T07:28:10;9.60;99.90
66608;DHT22;53462;39.616;8.824;2022-11-27T07:30:36;10.70;99.90
66608;DHT22;53462;39.616;8.824;2022-11-27T07:33:01;12.20;99.90
66608;DHT22;53462;39.616;8.824;2022-11-27T07:35:27;13.00;99.20
66608;DHT22;53462;39.616;8.824;2022-11-27T07:37:53;14.70;90.50
66608;DHT22;53462;39.616;8.824;2022-11-27T07:40:18;15.80;86.60
66608;DHT22;53462;39.616;8.824;2022-11-27T07:42:44;17.30;76.80
66608;DHT22;53462;39.616;8.824;2022-11-27T07:45:10;18.00;69.20
66608;DHT22;53462;39.616;8.824;2022-11-27T07:47:36;18.60;64.60
66608;DHT22;53462;39.616;8.824;2022-11-27T07:50:02;18.60;62.70
66608;DHT22;53462;39.616;8.824;2022-11-27T07:52:28;18.90;62.90
66608;DHT22;53462;39.616;8.824;2022-11-27T07:54:54;19.50;59.70
66608;DHT22;53462;39.616;8.824;2022-11-27T07:57:20;19.60;58.10
66608;DHT22;53462;39.616;8.824;2022-11-27T07:59:46;20.10;55.90
66608;DHT22;53462;39.616;8.824;2022-11-27T08:02:12;20.50;57.00
66608;DHT22;53462;39.616;8.824;2022-11-27T08:04:38;20.90;55.20
66608;DHT22;53462;39.616;8.824;2022-11-27T08:07:04;20.90;54.00
66608;DHT22;53462;39.616;8.824;2022-11-27T08:09:30;21.40;53.30
66608;DHT22;53462;39.616;8.824;2022-11-27T08:11:55;21.70;51.60
66608;DHT22;53462;39.616;8.824;2022-11-27T08:14:21;22.10;49.90
66608;DHT22;53462;39.616;8.824;2022-11-27T08:16:47;23.00;47.20
66608;DHT22;53462;39.616;8.824;2022-11-27T08:19:13;23.40;45.50
66608;DHT22;53462;39.616;8.824;2022-11-27T08:21:38;23.90;44.80
66608;DHT22;53462;39.616;8.824;2022-11-27T08:24:04;24.00;43.10
66608;DHT22;53462;39.616;8.824;2022-11-27T08:26:30;24.30;42.10
66608;DHT22;53462;39.616;8.824;2022-11-27T08:28:56;24.50;42.40
66608;DHT22;53462;39.616;8.824;2022-11-27T08:31:22;24.70;41.30
66608;DHT22;53462;39.616;8.824;2022-11-27T08:33:48;24.80;40.90
66608;DHT22;53462;39.616;8.824;2022-11-27T08:36:14;25.00;40.40
66608;DHT22;53462;39.616;8.824;2022-11-27T08:38:40;24.90;40.90
66608;DHT22;53462;39.616;8.824;2022-11-27T08:41:06;25.30;40.00
66608;DHT22;53462;39.616;8.824;2022-11-27T08:43:32;25.30;40.20
66608;DHT22;53462;39.616;8.824;2022-11-27T08:45:58;25.80;39.70
66608;DHT22;53462;39.616;8.824;2022-11-27T08:48:27;25.60;39.70
66608;DHT22;53462;39.616;8.824;2022-11-27T08:50:53;25.60;39.80
66608;DHT22;53462;39.616;8.824;2022-11-27T08:53:19;26.10;39.30
66608;DHT22;53462;39.616;8.824;2022-11-27T08:55:45;26.60;38.10
66608;DHT22;53462;39.616;8.824;2022-11-27T08:58:10;26.70;38.20
66608;DHT22;53462;39.616;8.824;2022-11-27T09:00:36;26.70;38.10
66608;DHT22;53462;39.616;8.824;2022-11-27T09:03:03;26.80;37.80
66608;DHT22;53462;39.616;8.824;2022-11-27T09:05:28;26.90;37.50
66608;DHT22;53462;39.616;8.824;2022-11-27T09:07:55;27.10;36.60
66608;DHT22;53462;39.616;8.824;2022-11-27T09:10:21;27.00;36.60
66608;DHT22;53462;39.616;8.824;2022-11-27T09:12:47;26.80;37.40
66608;DHT22;53462;39.616;8.824;2022-11-27T09:15:14;27.10;37.30
66608;DHT22;53462;39.616;8.824;2022-11-27T09:17:40;27.40;36.20
66608;DHT22;53462;39.616;8.824;2022-11-27T09:20:06;27.90;36.70
66608;DHT22;53462;39.616;8.824;2022-11-27T09:22:32;28.20;34.90
66608;DHT22;53462;39.616;8.824;2022-11-27T09:24:58;28.40;34.90
66608;DHT22;53462;39.616;8.824;2022-11-27T09:27:24;28.40;35.00
66608;DHT22;53462;39.616;8.824;2022-11-27T09:29:50;27.60;36.30
66608;DHT22;53462;39.616;8.824;2022-11-27T09:32:15;27.10;36.30
66608;DHT22;53462;39.616;8.824;2022-11-27T09:34:41;27.70;35.90
66608;DHT22;53462;39.616;8.824;2022-11-27T09:37:07;28.30;34.60
66608;DHT22;53462;39.616;8.824;2022-11-27T09:39:33;28.50;33.90
66608;DHT22;53462;39.616;8.824;2022-11-27T09:42:03;28.90;34.20
66608;DHT22;53462;39.616;8.824;2022-11-27T09:44:38;29.00;33.10
66608;DHT22;53462;39.616;8.824;2022-11-27T09:49:53;28.80;33.60
66608;DHT22;53462;39.616;8.824;2022-11-27T09:52:35;29.00;34.30
66608;DHT22;53462;39.616;8.824;2022-11-27T09:57:31;28.70;33.80
66608;DHT22;53462;39.616;8.824;2022-11-27T09:59:59;28.30;34.80
66608;DHT22;53462;39.616;8.824;2022-11-27T10:02:28;28.90;34.60
66608;DHT22;53462;39.616;8.824;2022-11-27T10:04:55;29.00;33.50
66608;DHT22;53462;39.616;8.824;2022-11-27T10:09:55;27.80;34.50
66608;DHT22;53462;39.616;8.824;2022-11-27T10:20:27;29.80;33.20
66608;DHT22;53462;39.616;8.824;2022-11-27T10:25:31;29.10;33.70
66608;DHT22;53462;39.616;8.824;2022-11-27T10:30:23;29.10;32.80
66608;DHT22;53462;39.616;8.824;2022-11-27T10:32:53;29.10;33.20
66608;DHT22;53462;39.616;8.824;2022-11-27T10:35:23;28.70;31.90
66608;DHT22;53462;39.616;8.824;2022-11-27T10:40:22;28.60;33.70
66608;DHT22;53462;39.616;8.824;2022-11-27T10:45:36;28.40;34.70
66608;DHT22;53462;39.616;8.824;2022-11-27T10:48:03;29.20;34.40
66608;DHT22;53462;39.616;8.824;2022-11-27T10:50:28;28.60;35.00
66608;DHT22;53462;39.616;8.824;2022-11-27T10:52:56;29.10;33.50
66608;DHT22;53462;39.616;8.824;2022-11-27T11:00:26;24.60;40.50
66608;DHT22;53462;39.616;8.824;2022-11-27T11:03:02;23.40;43.50
66608;DHT22;53462;39.616;8.824;2022-11-27T11:05:28;22.50;45.20
66608;DHT22;53462;39.616;8.824;2022-11-27T11:07:55;22.20;46.40
66608;DHT22;53462;39.616;8.824;2022-11-27T11:10:31;21.90;48.40
66608;DHT22;53462;39.616;8.824;2022-11-27T11:15:46;21.50;47.30
66608;DHT22;53462;39.616;8.824;2022-11-27T11:18:20;21.40;49.60
66608;DHT22;53462;39.616;8.824;2022-11-27T11:20:46;21.40;50.00
66608;DHT22;53462;39.616;8.824;2022-11-27T11:23:31;21.20;49.90
66608;DHT22;53462;39.616;8.824;2022-11-27T11:25:59;20.80;50.10
66608;DHT22;53462;39.616;8.824;2022-11-27T11:28:26;20.70;51.70
66608;DHT22;53462;39.616;8.824;2022-11-27T11:30:52;20.60;50.30
66608;DHT22;53462;39.616;8.824;2022-11-27T11:33:19;20.70;49.80
66608;DHT22;53462;39.616;8.824;2022-11-27T11:35:56;20.40;49.30
66608;DHT22;53462;39.616;8.824;2022-11-27T11:38:27;20.50;49.60
66608;DHT22;53462;39.616;8.824;2022-11-27T11:41:04;20.60;48.30
66608;DHT22;53462;39.616;8.824;2022-11-27T11:43:32;20.50;49.60
66608;DHT22;53462;39.616;8.824;2022-11-27T11:46:06;20.50;50.30
66608;DHT22;53462;39.616;8.824;2022-11-27T11:48:36;20.70;51.20
66608;DHT22;53462;39.616;8.824;2022-11-27T11:53:35;20.30;51.20
66608;DHT22;53462;39.616;8.824;2022-11-27T11:56:10;20.50;50.00
66608;DHT22;53462;39.616;8.824;2022-11-27T12:03:48;20.70;48.90
66608;DHT22;53462;39.616;8.824;2022-11-27T12:16:48;20.20;45.60
66608;DHT22;53462;39.616;8.824;2022-11-27T12:29:36;20.50;42.30
66608;DHT22;53462;39.616;8.824;2022-11-27T12:32:08;20.70;41.40
66608;DHT22;53462;39.616;8.824;2022-11-27T12:37:33;20.60;42.20
66608;DHT22;53462;39.616;8.824;2022-11-27T12:42:47;20.50;42.60
66608;DHT22;53462;39.616;8.824;2022-11-27T12:45:18;20.40;42.20
66608;DHT22;53462;39.616;8.824;2022-11-27T12:47:54;20.40;43.90
66608;DHT22;53462;39.616;8.824;2022-11-27T12:53:02;20.40;44.00
66608;DHT22;53462;39.616;8.824;2022-11-27T12:55:30;20.40;43.10
66608;DHT22;53462;39.616;8.824;2022-11-27T12:58:01;20.20;42.40
66608;DHT22;53462;39.616;8.824;2022-11-27T13:00:29;20.20;42.50
66608;DHT22;53462;39.616;8.824;2022-11-27T13:05:23;20.10;42.60
66608;DHT22;53462;39.616;8.824;2022-11-27T13:10:26;20.20;42.50
66608;DHT22;53462;39.616;8.824;2022-11-27T13:15:29;20.50;42.80
66608;DHT22;53462;39.616;8.824;2022-11-27T13:18:01;20.50;42.00
66608;DHT22;53462;39.616;8.824;2022-11-27T13:20:29;20.50;42.20
66608;DHT22;53462;39.616;8.824;2022-11-27T13:22:57;20.40;40.30
66608;DHT22;53462;39.616;8.824;2022-11-27T13:25:22;20.70;41.90
66608;DHT22;53462;39.616;8.824;2022-11-27T13:27:48;20.80;41.80
66608;DHT22;53462;39.616;8.824;2022-11-27T13:30:20;21.00;41.50
66608;DHT22;53462;39.616;8.824;2022-11-27T13:32:48;21.10;42.10
66608;DHT22;53462;39.616;8.824;2022-11-27T13:35:56;21.30;41.70
66608;DHT22;53462;39.616;8.824;2022-11-27T13:40:29;21.50;38.10
66608;DHT22;53462;39.616;8.824;2022-11-27T13:42:56;21.60;37.60
66608;DHT22;53462;39.616;8.824;2022-11-27T13:45:26;22.20;35.30
66608;DHT22;53462;39.616;8.824;2022-11-27T13:47:53;24.10;33.80
66608;DHT22;53462;39.616;8.824;2022-11-27T13:50:21;26.60;30.90
66608;DHT22;53462;39.616;8.824;2022-11-27T13:55:24;28.90;27.10
66608;DHT22;53462;39.616;8.824;2022-11-27T13:57:51;29.50;26.90
66608;DHT22;53462;39.616;8.824;2022-11-27T14:00:17;29.80;26.40
66608;DHT22;53462;39.616;8.824;2022-11-27T14:02:49;29.20;26.90
66608;DHT22;53462;39.616;8.824;2022-11-27T14:05:16;28.90;27.40
66608;DHT22;53462;39.616;8.824;2022-11-27T14:07:52;28.30;26.90
66608;DHT22;53462;39.616;8.824;2022-11-27T14:10:20;27.70;27.70
66608;DHT22;53462;39.616;8.824;2022-11-27T14:12:59;26.80;28.30
66608;DHT22;53462;39.616;8.824;2022-11-27T14:15:26;23.90;31.90
66608;DHT22;53462;39.616;8.824;2022-11-27T14:17:53;24.80;33.30
66608;DHT22;53462;39.616;8.824;2022-11-27T14:20:29;24.30;34.60
66608;DHT22;53462;39.616;8.824;2022-11-27T14:22:55;22.00;36.10
66608;DHT22;53462;39.616;8.824;2022-11-27T14:25:32;20.20;40.50
66608;DHT22;53462;39.616;8.824;2022-11-27T14:28:18;19.20;41.90
66608;DHT22;53462;39.616;8.824;2022-11-27T14:30:47;18.70;41.00
66608;DHT22;53462;39.616;8.824;2022-11-27T14:35:46;18.40;41.60
66608;DHT22;53462;39.616;8.824;2022-11-27T14:38:12;18.30;42.70
66608;DHT22;53462;39.616;8.824;2022-11-27T14:40:39;18.30;40.90
66608;DHT22;53462;39.616;8.824;2022-11-27T14:43:09;18.10;42.00
66608;DHT22;53462;39.616;8.824;2022-11-27T14:45:35;18.00;42.30
66608;DHT22;53462;39.616;8.824;2022-11-27T14:48:02;17.90;43.40
66608;DHT22;53462;39.616;8.824;2022-11-27T14:50:28;17.70;43.80
66608;DHT22;53462;39.616;8.824;2022-11-27T14:52:54;17.70;45.20
66608;DHT22;53462;39.616;8.824;2022-11-27T14:55:21;17.60;48.90
66608;DHT22;53462;39.616;8.824;2022-11-27T14:57:48;17.40;53.70
66608;DHT22;53462;39.616;8.824;2022-11-27T15:00:24;17.20;56.70
66608;DHT22;53462;39.616;8.824;2022-11-27T15:03:05;17.20;59.00
66608;DHT22;53462;39.616;8.824;2022-11-27T15:05:31;16.90;58.50
66608;DHT22;53462;39.616;8.824;2022-11-27T15:07:58;16.70;61.50
66608;DHT22;53462;39.616;8.824;2022-11-27T15:10:33;16.60;64.40
66608;DHT22;53462;39.616;8.824;2022-11-27T15:13:00;16.40;68.00
66608;DHT22;53462;39.616;8.824;2022-11-27T15:15:27;16.40;69.50
66608;DHT22;53462;39.616;8.824;2022-11-27T15:17:55;16.30;72.00
66608;DHT22;53462;39.616;8.824;2022-11-27T15:20:23;16.10;72.90
66608;DHT22;53462;39.616;8.824;2022-11-27T15:22:53;15.90;73.70
66608;DHT22;53462;39.616;8.824;2022-11-27T15:25:39;15.80;73.90
66608;DHT22;53462;39.616;8.824;2022-11-27T15:30:50;15.50;76.00
66608;DHT22;53462;39.616;8.824;2022-11-27T15:33:28;15.40;75.90
66608;DHT22;53462;39.616;8.824;2022-11-27T15:38:39;15.20;77.50
66608;DHT22;53462;39.616;8.824;2022-11-27T15:41:15;15.20;77.80
66608;DHT22;53462;39.616;8.824;2022-11-27T15:43:43;15.10;78.00
66608;DHT22;53462;39.616;8.824;2022-11-27T15:46:10;14.90;78.70
66608;DHT22;53462;39.616;8.824;2022-11-27T15:48:37;14.80;78.00
66608;DHT22;53462;39.616;8.824;2022-11-27T15:51:02;14.80;78.80
66608;DHT22;53462;39.616;8.824;2022-11-27T15:53:28;14.70;80.00
66608;DHT22;53462;39.616;8.824;2022-11-27T15:55:54;14.60;81.10
66608;DHT22;53462;39.616;8.824;2022-11-27T15:58:20;14.50;80.70
66608;DHT22;53462;39.616;8.824;2022-11-27T16:00:45;14.40;79.90
66608;DHT22;53462;39.616;8.824;2022-11-27T16:03:11;14.30;79.80
66608;DHT22;53462;39.616;8.824;2022-11-27T16:05:38;14.30;78.90
66608;DHT22;53462;39.616;8.824;2022-11-27T16:08:04;14.20;80.00
66608;DHT22;53462;39.616;8.824;2022-11-27T16:10:30;14.10;80.30
66608;DHT22;53462;39.616;8.824;2022-11-27T16:12:56;14.00;80.70
66608;DHT22;53462;39.616;8.824;2022-11-27T16:15:23;14.00;80.70
66608;DHT22;53462;39.616;8.824;2022-11-27T16:17:50;13.90;80.80
66608;DHT22;53462;39.616;8.824;2022-11-27T16:20:16;13.90;80.80
66608;DHT22;53462;39.616;8.824;2022-11-27T16:22:42;13.90;81.00
66608;DHT22;53462;39.616;8.824;2022-11-27T16:25:08;13.80;81.10
66608;DHT22;53462;39.616;8.824;2022-11-27T16:27:34;13.70;81.20
66608;DHT22;53462;39.616;8.824;2022-11-27T16:30:00;13.60;81.90
66608;DHT22;53462;39.616;8.824;2022-11-27T16:32:26;13.60;82.70
66608;DHT22;53462;39.616;8.824;2022-11-27T16:34:51;13.60;83.10
66608;DHT22;53462;39.616;8.824;2022-11-27T16:37:18;13.50;83.40
66608;DHT22;53462;39.616;8.824;2022-11-27T16:39:43;13.40;83.80
66608;DHT22;53462;39.616;8.824;2022-11-27T16:42:11;13.40;84.00
66608;DHT22;53462;39.616;8.824;2022-11-27T16:44:37;13.40;84.40
66608;DHT22;53462;39.616;8.824;2022-11-27T16:47:03;13.40;84.60
66608;DHT22;53462;39.616;8.824;2022-11-27T16:49:29;13.30;85.20
66608;DHT22;53462;39.616;8.824;2022-11-27T16:51:56;13.10;86.20
66608;DHT22;53462;39.616;8.824;2022-11-27T16:54:21;12.90;88.50
66608;DHT22;53462;39.616;8.824;2022-11-27T16:56:47;12.70;90.60
66608;DHT22;53462;39.616;8.824;2022-11-27T16:59:15;12.60;92.00
66608;DHT22;53462;39.616;8.824;2022-11-27T17:01:42;12.50;92.80
66608;DHT22;53462;39.616;8.824;2022-11-27T17:04:10;12.50;93.60
66608;DHT22;53462;39.616;8.824;2022-11-27T17:06:39;12.40;94.70
66608;DHT22;53462;39.616;8.824;2022-11-27T17:09:05;12.20;95.50
66608;DHT22;53462;39.616;8.824;2022-11-27T17:11:33;12.20;96.50
66608;DHT22;53462;39.616;8.824;2022-11-27T17:14:01;12.10;97.20
66608;DHT22;53462;39.616;8.824;2022-11-27T17:16:27;12.00;97.80
66608;DHT22;53462;39.616;8.824;2022-11-27T17:18:54;12.00;98.10
66608;DHT22;53462;39.616;8.824;2022-11-27T17:21:22;11.90;98.80
66608;DHT22;53462;39.616;8.824;2022-11-27T17:23:54;11.90;99.80
66608;DHT22;53462;39.616;8.824;2022-11-27T17:26:20;11.90;99.90
66608;DHT22;53462;39.616;8.824;2022-11-27T17:28:46;11.90;99.90
66608;DHT22;53462;39.616;8.824;2022-11-27T17:31:16;12.10;99.90
66608;DHT22;53462;39.616;8.824;2022-11-27T17:33:42;12.10;99.90
66608;DHT22;53462;39.616;8.824;2022-11-27T17:36:08;12.10;99.90
66608;DHT22;53462;39.616;8.824;2022-11-27T17:38:34;12.20;99.90
66608;DHT22;53462;39.616;8.824;2022-11-27T17:41:04;12.20;98.70
66608;DHT22;53462;39.616;8.824;2022-11-27T17:43:33;12.00;99.30